createdAt,value
2019-03-12T00:02:09.845Z,77.80
2019-03-12T00:04:30.379Z,78.80
2019-03-12T00:06:50.912Z,79.20
2019-03-12T00:09:11.449Z,79.40
2019-03-12T00:11:32.090Z,80.30
2019-03-12T00:13:52.619Z,80.50
2019-03-12T00:16:13.124Z,80.90
2019-03-12T00:18:33.591Z,80.90
2019-03-12T00:20:54.264Z,81.50
2019-03-12T00:23:14.757Z,81.50
2019-03-12T00:25:35.225Z,81.40
2019-03-12T00:27:55.870Z,81.30
2019-03-12T00:30:16.475Z,81.10
2019-03-12T00:32:37.637Z,81.20
2019-03-12T00:34:58.112Z,81.40
2019-03-12T00:37:18.622Z,80.40
2019-03-12T00:39:40.145Z,80.40
2019-03-12T00:42:00.789Z,80.70
2019-03-12T00:44:21.392Z,81.30
2019-03-12T00:46:41.906Z,81.60
2019-03-12T00:49:03.528Z,81.80
2019-03-12T00:51:25.703Z,81.80
2019-03-12T00:53:45.567Z,82.20
2019-03-12T00:56:06.188Z,82.40
2019-03-12T00:58:26.732Z,82.30
2019-03-12T01:00:47.385Z,82.20
2019-03-12T01:03:08.109Z,82.30
2019-03-12T01:05:28.699Z,82.90
2019-03-12T01:07:49.151Z,83.50
2019-03-12T01:10:14.393Z,83.90
2019-03-12T01:12:35.129Z,83.80
2019-03-12T01:15:07.176Z,83.60
2019-03-12T01:17:28.578Z,83.70
2019-03-12T01:19:49.134Z,84.10
2019-03-12T01:22:09.677Z,84.30
2019-03-12T01:24:31.282Z,84.40
2019-03-12T01:26:51.891Z,84.90
2019-03-12T01:29:12.422Z,84.90
2019-03-12T01:31:33.151Z,85.50
2019-03-12T01:33:53.658Z,85.70
2019-03-12T01:36:14.110Z,86.00
2019-03-12T01:38:40.759Z,86.10
2019-03-12T01:41:01.312Z,85.40
2019-03-12T01:43:22.873Z,85.80
2019-03-12T01:45:44.405Z,86.30
2019-03-12T01:48:05.048Z,86.70
2019-03-12T01:50:25.592Z,87.20
2019-03-12T01:52:46.157Z,86.60
2019-03-12T01:55:09.899Z,87.20
2019-03-12T01:57:30.400Z,87.20
2019-03-12T01:59:51.992Z,87.20
2019-03-12T02:02:12.602Z,87.30
2019-03-12T02:04:33.131Z,87.40
2019-03-12T02:06:53.822Z,87.30
2019-03-12T02:09:14.540Z,87.60
2019-03-12T02:11:35.138Z,88.10
2019-03-12T02:13:55.743Z,88.40
2019-03-12T02:16:17.845Z,88.40
2019-03-12T02:18:50.596Z,88.40
2019-03-12T02:21:10.103Z,89.50
2019-03-12T02:23:29.897Z,89.30
2019-03-12T02:25:50.511Z,89.70
2019-03-12T02:28:11.094Z,90.10
2019-03-12T02:30:31.646Z,90.00
2019-03-12T02:32:52.154Z,89.50
2019-03-12T02:35:15.199Z,88.80
2019-03-12T02:37:34.403Z,88.80
2019-03-12T02:39:55.497Z,88.70
2019-03-12T02:42:16.096Z,88.70
2019-03-12T02:44:36.623Z,88.80
2019-03-12T02:46:57.356Z,88.90
2019-03-12T02:49:17.876Z,89.10
2019-03-12T02:51:40.900Z,89.50
2019-03-12T02:54:02.941Z,90.00
2019-03-12T02:56:22.858Z,90.00
2019-03-12T02:58:43.528Z,90.10
2019-03-12T03:01:04.470Z,89.90
2019-03-12T03:03:25.045Z,90.10
2019-03-12T03:05:56.375Z,90.50
2019-03-12T03:08:18.732Z,90.70
2019-03-12T03:10:38.984Z,90.50
2019-03-12T03:12:59.634Z,90.60
2019-03-12T03:15:43.400Z,90.30
2019-03-12T03:18:04.275Z,90.20
2019-03-12T03:20:26.418Z,90.00
2019-03-12T03:22:46.405Z,90.30
2019-03-12T03:25:07.944Z,90.30
2019-03-12T03:27:29.535Z,90.50
2019-03-12T03:29:50.325Z,90.10
2019-03-12T03:32:11.261Z,90.50
2019-03-12T03:34:31.955Z,90.70
2019-03-12T03:36:52.497Z,90.80
2019-03-12T03:39:13.012Z,90.30
2019-03-12T03:41:35.013Z,90.50
2019-03-12T03:43:55.058Z,90.70
2019-03-12T03:46:15.751Z,90.70
2019-03-12T03:48:37.745Z,91.20
2019-03-12T03:50:58.377Z,90.80
2019-03-12T03:53:18.996Z,90.70
2019-03-12T03:55:39.502Z,90.80
2019-03-12T03:58:00.293Z,91.00
2019-03-12T04:00:24.750Z,91.20
2019-03-12T04:03:04.774Z,91.20
2019-03-12T04:05:25.327Z,91.00
2019-03-12T04:07:46.012Z,91.00
2019-03-12T04:10:09.177Z,90.90
2019-03-12T04:12:29.888Z,91.10
2019-03-12T04:14:52.906Z,91.10
2019-03-12T04:17:12.846Z,91.20
2019-03-12T04:19:33.490Z,90.80
2019-03-12T04:21:54.044Z,90.20
2019-03-12T04:24:14.939Z,90.10
2019-03-12T04:26:35.577Z,90.30
2019-03-12T04:28:56.178Z,90.50
2019-03-12T04:31:17.080Z,90.00
2019-03-12T04:33:58.956Z,88.70
2019-03-12T04:36:38.860Z,88.60
2019-03-12T04:38:59.371Z,88.70
2019-03-12T04:41:20.060Z,89.40
2019-03-12T04:43:40.674Z,90.00
2019-03-12T04:46:01.265Z,89.50
2019-03-12T04:48:21.769Z,89.60
2019-03-12T04:50:42.364Z,89.20
2019-03-12T04:53:03.020Z,90.00
2019-03-12T04:55:23.543Z,90.40
2019-03-12T04:57:44.235Z,90.30
2019-03-12T05:00:19.402Z,90.40
2019-03-12T05:02:40.996Z,90.10
2019-03-12T05:05:01.573Z,90.60
2019-03-12T05:07:22.282Z,90.80
2019-03-12T05:09:42.847Z,90.90
2019-03-12T05:12:03.467Z,90.80
2019-03-12T05:14:26.034Z,91.00
2019-03-12T05:16:46.231Z,90.70
2019-03-12T05:19:06.894Z,90.90
2019-03-12T05:21:27.649Z,91.20
2019-03-12T05:23:48.352Z,91.20
2019-03-12T05:26:08.935Z,90.80
2019-03-12T05:28:33.815Z,90.90
2019-03-12T05:31:07.102Z,91.60
2019-03-12T05:33:27.647Z,91.20
2019-03-12T05:35:48.314Z,91.10
2019-03-12T05:38:08.858Z,90.90
2019-03-12T05:40:29.439Z,91.00
2019-03-12T05:42:50.064Z,90.70
2019-03-12T05:45:19.776Z,90.30
2019-03-12T05:47:47.732Z,90.40
2019-03-12T05:50:11.009Z,90.70
2019-03-12T05:52:32.669Z,90.40
2019-03-12T05:54:56.403Z,90.00
2019-03-12T05:57:17.071Z,90.10
2019-03-12T05:59:37.698Z,90.40
2019-03-12T06:01:58.538Z,90.10
2019-03-12T06:04:19.155Z,90.00
2019-03-12T06:06:39.656Z,90.00
2019-03-12T06:09:00.146Z,90.10
2019-03-12T06:11:20.601Z,90.20
2019-03-12T06:13:41.207Z,90.50
2019-03-12T06:16:01.907Z,90.10
2019-03-12T06:18:22.420Z,89.60
2019-03-12T06:20:43.095Z,87.40
2019-03-12T06:23:03.706Z,85.90
2019-03-12T06:25:24.237Z,84.30
2019-03-12T06:27:44.823Z,82.40
2019-03-12T06:30:18.590Z,80.70
2019-03-12T06:32:52.900Z,79.10
2019-03-12T06:35:15.529Z,76.60
2019-03-12T06:37:37.643Z,76.20
2019-03-12T06:40:02.521Z,74.20
2019-03-12T06:42:30.805Z,73.20
2019-03-12T06:44:53.056Z,72.10
2019-03-12T06:47:31.257Z,70.30
2019-03-12T06:50:12.270Z,68.50
2019-03-12T06:52:49.573Z,67.20
2019-03-12T06:55:30.311Z,65.80
2019-03-12T06:57:58.316Z,63.90
2019-03-12T07:00:26.692Z,59.40
2019-03-12T07:02:57.719Z,55.60
2019-03-12T07:05:19.389Z,49.50
2019-03-12T07:07:50.312Z,45.00
2019-03-12T07:10:28.666Z,41.80
2019-03-12T07:12:50.560Z,40.30
2019-03-12T07:15:12.688Z,40.20
2019-03-12T07:17:34.570Z,38.50
2019-03-12T07:20:13.502Z,36.40
2019-03-12T07:22:38.676Z,35.00
2019-03-12T07:25:12.845Z,34.60
2019-03-12T07:27:34.714Z,33.70
2019-03-12T07:29:56.574Z,32.80
2019-03-12T07:32:19.804Z,33.50
2019-03-12T07:35:01.199Z,33.50
2019-03-12T07:37:26.007Z,32.30
2019-03-12T07:39:50.480Z,34.80
2019-03-12T07:42:18.120Z,34.50
2019-03-12T07:44:50.121Z,34.50
2019-03-12T07:47:18.085Z,32.50
2019-03-12T07:49:40.169Z,32.10
2019-03-12T07:52:08.918Z,32.30
2019-03-12T07:54:40.285Z,31.90
2019-03-12T07:57:05.029Z,31.50
2019-03-12T07:59:38.906Z,31.50
2019-03-12T08:02:04.848Z,31.30
2019-03-12T08:04:26.727Z,33.80
2019-03-12T08:06:55.643Z,34.90
2019-03-12T08:09:17.599Z,36.00
2019-03-12T08:11:39.426Z,37.90
2019-03-12T08:14:10.371Z,36.10
2019-03-12T08:16:38.796Z,34.20
2019-03-12T08:19:05.920Z,36.50
2019-03-12T08:21:30.744Z,38.30
2019-03-12T08:24:01.779Z,35.80
2019-03-12T08:26:43.306Z,34.90
2019-03-12T08:29:11.315Z,33.00
2019-03-12T08:31:48.209Z,32.00
2019-03-12T08:34:26.584Z,31.90
2019-03-12T08:36:54.274Z,32.50
2019-03-12T08:39:16.189Z,33.20
2019-03-12T08:41:38.092Z,31.30
2019-03-12T08:44:12.291Z,30.40
2019-03-12T08:46:47.206Z,31.60
2019-03-12T08:49:11.788Z,30.70
2019-03-12T08:51:39.299Z,31.10
2019-03-12T08:54:04.047Z,32.40
2019-03-12T08:56:25.850Z,34.60
2019-03-12T08:58:57.101Z,33.60
2019-03-12T09:01:37.019Z,32.20
2019-03-12T09:03:58.941Z,33.00
2019-03-12T09:06:30.149Z,32.90
2019-03-12T09:08:53.242Z,32.70
2019-03-12T09:11:27.404Z,32.10
2019-03-12T09:13:52.294Z,31.60
2019-03-12T09:16:12.882Z,33.50
2019-03-12T09:18:37.650Z,32.00
2019-03-12T09:21:00.468Z,31.80
2019-03-12T09:23:25.443Z,30.50
2019-03-12T09:25:53.510Z,30.70
2019-03-12T09:28:16.481Z,31.90
2019-03-12T09:30:56.817Z,32.40
2019-03-12T09:33:23.428Z,33.00
2019-03-12T09:35:45.522Z,32.70
2019-03-12T09:38:25.893Z,33.50
2019-03-12T09:40:48.951Z,32.90
2019-03-12T09:43:26.144Z,33.10
2019-03-12T09:45:53.389Z,33.70
2019-03-12T09:48:14.973Z,33.80
2019-03-12T09:50:36.621Z,32.70
2019-03-12T09:53:14.897Z,32.90
2019-03-12T09:55:39.021Z,31.80
2019-03-12T09:58:03.405Z,32.00
2019-03-12T10:00:37.380Z,32.30
2019-03-12T10:03:02.348Z,31.30
2019-03-12T10:05:27.009Z,31.50
2019-03-12T10:07:55.009Z,31.80
2019-03-12T10:10:29.896Z,31.70
2019-03-12T10:12:54.363Z,31.30
2019-03-12T10:15:22.074Z,30.40
2019-03-12T10:17:49.621Z,29.50
2019-03-12T10:20:20.825Z,29.10
2019-03-12T10:22:42.735Z,28.60
2019-03-12T10:25:07.553Z,28.20
2019-03-12T10:27:32.479Z,27.80
2019-03-12T10:29:54.446Z,26.80
2019-03-12T10:32:16.413Z,27.00
2019-03-12T10:34:56.629Z,27.10
2019-03-12T10:37:21.359Z,26.40
2019-03-12T10:39:55.273Z,25.80
2019-03-12T10:42:20.223Z,25.50
2019-03-12T10:44:50.648Z,25.90
2019-03-12T10:47:12.719Z,26.40
2019-03-12T10:49:37.765Z,26.10
2019-03-12T10:51:55.062Z,26.10
2019-03-12T10:54:15.307Z,26.00
2019-03-12T10:56:35.549Z,25.60
2019-03-12T10:58:55.992Z,25.90
2019-03-12T11:01:16.379Z,25.30
2019-03-12T11:03:36.789Z,25.40
2019-03-12T11:05:57.092Z,24.90
2019-03-12T11:08:18.301Z,24.80
2019-03-12T11:10:38.605Z,25.80
2019-03-12T11:12:58.994Z,25.90
2019-03-12T11:15:20.339Z,25.70
2019-03-12T11:17:49.415Z,25.50
2019-03-12T11:20:02.557Z,25.00
2019-03-12T11:22:23.839Z,24.70
2019-03-12T11:24:45.280Z,24.60
2019-03-12T11:27:05.389Z,25.00
2019-03-12T11:29:25.370Z,24.50
2019-03-12T11:31:45.513Z,25.60
2019-03-12T11:34:06.041Z,25.70
2019-03-12T11:36:26.319Z,26.10
2019-03-12T11:38:46.730Z,25.90
2019-03-12T11:41:07.225Z,26.80
2019-03-12T11:43:27.614Z,25.50
2019-03-12T11:45:47.811Z,24.90
2019-03-12T11:48:08.269Z,25.20
2019-03-12T11:50:28.598Z,24.90
2019-03-12T11:52:56.154Z,24.40
2019-03-12T11:55:12.355Z,24.10
2019-03-12T11:57:32.816Z,24.50
2019-03-12T11:59:53.115Z,24.00
2019-03-12T12:02:13.637Z,23.80
2019-03-12T12:04:33.955Z,24.20
2019-03-12T12:06:57.324Z,24.10
2019-03-12T12:09:18.611Z,23.80
2019-03-12T12:11:39.803Z,23.80
2019-03-12T12:14:00.076Z,23.20
2019-03-12T12:16:20.573Z,23.00
2019-03-12T12:18:40.963Z,22.80
2019-03-12T12:21:01.342Z,23.80
2019-03-12T12:23:21.628Z,23.50
2019-03-12T12:25:41.853Z,23.00
2019-03-12T12:28:02.104Z,21.80
2019-03-12T12:30:24.044Z,21.60
2019-03-12T12:32:44.310Z,20.30
2019-03-12T12:35:09.193Z,20.00
2019-03-12T12:37:30.985Z,19.80
2019-03-12T12:39:52.971Z,19.80
2019-03-12T12:42:13.131Z,19.70
2019-03-12T12:44:33.628Z,19.50
2019-03-12T12:46:53.986Z,20.30
2019-03-12T12:49:14.307Z,20.20
2019-03-12T12:51:34.621Z,20.20
2019-03-12T12:53:54.776Z,19.60
2019-03-12T12:56:15.097Z,19.00
2019-03-12T12:58:35.518Z,19.40
2019-03-12T13:00:55.935Z,19.90
2019-03-12T13:03:17.731Z,20.10
2019-03-12T13:05:38.549Z,19.90
2019-03-12T13:07:58.850Z,20.10
2019-03-12T13:10:26.532Z,19.90
2019-03-12T13:12:46.785Z,19.60
2019-03-12T13:15:10.369Z,19.40
2019-03-12T13:17:30.681Z,19.10
2019-03-12T13:19:51.016Z,20.10
2019-03-12T13:22:11.534Z,19.20
2019-03-12T13:24:31.710Z,19.00
2019-03-12T13:26:52.039Z,19.70
2019-03-12T13:29:12.294Z,19.60
2019-03-12T13:31:32.628Z,19.70
2019-03-12T13:33:52.890Z,19.50
2019-03-12T13:36:14.933Z,19.00
2019-03-12T13:38:45.117Z,19.10
2019-03-12T13:41:02.577Z,19.50
2019-03-12T13:43:19.282Z,20.40
2019-03-12T13:45:39.573Z,19.90
2019-03-12T13:47:59.722Z,18.80
2019-03-12T13:50:22.967Z,19.10
2019-03-12T13:52:43.432Z,19.60
2019-03-12T13:55:05.458Z,18.90
2019-03-12T13:57:25.649Z,18.40
2019-03-12T13:59:45.893Z,18.30
2019-03-12T14:02:07.147Z,18.10
2019-03-12T14:04:27.988Z,17.80
2019-03-12T14:06:48.236Z,18.80
2019-03-12T14:09:08.483Z,19.10
2019-03-12T14:11:30.398Z,18.60
2019-03-12T14:13:50.852Z,19.20
2019-03-12T14:16:11.237Z,18.50
2019-03-12T14:18:31.606Z,18.90
2019-03-12T14:21:00.967Z,18.70
2019-03-12T14:23:29.587Z,18.70
2019-03-12T14:25:50.207Z,18.30
2019-03-12T14:28:10.367Z,19.10
2019-03-12T14:30:30.438Z,21.20
2019-03-12T14:32:52.177Z,21.80
2019-03-12T14:35:14.351Z,20.70
2019-03-12T14:37:36.212Z,20.10
2019-03-12T14:39:56.400Z,20.00
2019-03-12T14:42:16.789Z,19.40
2019-03-12T14:44:37.151Z,19.70
2019-03-12T14:46:57.377Z,21.00
2019-03-12T14:49:17.418Z,20.90
2019-03-12T14:51:56.822Z,21.80
2019-03-12T14:54:17.259Z,23.40
2019-03-12T14:56:37.774Z,23.10
2019-03-12T14:58:58.572Z,23.70
2019-03-12T15:01:19.033Z,24.90
2019-03-12T15:03:39.568Z,26.50
2019-03-12T15:05:59.852Z,26.70
2019-03-12T15:08:20.195Z,26.90
2019-03-12T15:10:40.501Z,27.20
2019-03-12T15:13:00.749Z,28.10
2019-03-12T15:15:21.044Z,27.70
2019-03-12T15:17:41.527Z,28.50
2019-03-12T15:20:01.779Z,28.50
2019-03-12T15:22:22.385Z,28.50
2019-03-12T15:24:42.947Z,28.70
2019-03-12T15:27:03.523Z,29.20
2019-03-12T15:29:24.070Z,29.20
2019-03-12T15:31:44.749Z,28.90
2019-03-12T15:34:05.609Z,29.20
2019-03-12T15:36:26.595Z,29.40
2019-03-12T15:38:47.212Z,29.20
2019-03-12T15:41:09.412Z,28.90
2019-03-12T15:43:30.019Z,28.70
2019-03-12T15:45:50.714Z,28.60
2019-03-12T15:48:11.226Z,28.60
2019-03-12T15:50:34.534Z,28.40
2019-03-12T15:52:53.998Z,28.60
2019-03-12T15:55:14.568Z,28.40
2019-03-12T15:57:35.123Z,28.40
2019-03-12T15:59:57.178Z,28.50
2019-03-12T16:02:17.709Z,28.40
2019-03-12T16:04:38.412Z,28.60
2019-03-12T16:07:01.609Z,28.50
2019-03-12T16:09:20.610Z,28.70
2019-03-12T16:11:41.193Z,29.10
2019-03-12T16:14:01.825Z,29.20
2019-03-12T16:16:21.757Z,29.60
2019-03-12T16:18:42.437Z,29.90
2019-03-12T16:21:03.198Z,29.60
2019-03-12T16:23:23.911Z,29.90
2019-03-12T16:25:44.673Z,30.30
2019-03-12T16:28:05.207Z,30.80
2019-03-12T16:30:26.919Z,30.60
2019-03-12T16:32:47.659Z,31.40
2019-03-12T16:35:09.150Z,31.60
2019-03-12T16:37:29.865Z,31.90
2019-03-12T16:39:51.605Z,32.50
2019-03-12T16:42:12.185Z,32.60
2019-03-12T16:44:33.999Z,32.30
2019-03-12T16:46:54.546Z,32.60
2019-03-12T16:49:15.062Z,32.40
2019-03-12T16:51:35.718Z,32.70
2019-03-12T16:53:56.263Z,32.80
2019-03-12T16:56:16.921Z,33.20
2019-03-12T16:58:37.439Z,33.00
2019-03-12T17:00:58.063Z,32.80
2019-03-12T17:03:19.750Z,33.00
2019-03-12T17:05:40.339Z,33.30
2019-03-12T17:08:01.129Z,34.40
2019-03-12T17:10:22.168Z,34.50
2019-03-12T17:12:42.751Z,35.00
2019-03-12T17:15:04.041Z,35.40
2019-03-12T17:17:24.827Z,37.60
2019-03-12T17:19:46.593Z,38.40
2019-03-12T17:22:07.190Z,39.30
2019-03-12T17:24:29.204Z,40.30
2019-03-12T17:26:50.972Z,40.90
2019-03-12T17:29:11.550Z,41.00
2019-03-12T17:31:32.091Z,41.40
2019-03-12T17:33:54.299Z,41.30
2019-03-12T17:36:15.855Z,42.00
2019-03-12T17:38:46.114Z,42.80
2019-03-12T17:40:59.110Z,43.30
2019-03-12T17:43:21.022Z,43.30
2019-03-12T17:45:41.688Z,43.00
2019-03-12T17:48:02.300Z,43.10
2019-03-12T17:50:22.867Z,43.50
2019-03-12T17:52:43.514Z,44.40
2019-03-12T17:55:04.960Z,44.90
2019-03-12T17:57:25.633Z,45.00
2019-03-12T17:59:46.145Z,45.40
2019-03-12T18:02:07.764Z,46.20
2019-03-12T18:04:28.344Z,46.80
2019-03-12T18:06:49.013Z,47.20
2019-03-12T18:09:10.275Z,46.90
2019-03-12T18:11:30.992Z,47.50
2019-03-12T18:13:52.787Z,48.30
2019-03-12T18:16:13.398Z,49.20
2019-03-12T18:18:37.017Z,49.50
2019-03-12T18:20:57.637Z,49.90
2019-03-12T18:23:18.238Z,50.20
2019-03-12T18:25:41.026Z,51.00
2019-03-12T18:28:01.212Z,51.20
2019-03-12T18:30:23.900Z,50.50
2019-03-12T18:32:44.683Z,49.80
2019-03-12T18:35:09.954Z,49.40
2019-03-12T18:37:30.607Z,49.30
2019-03-12T18:39:52.756Z,49.30
2019-03-12T18:42:13.287Z,49.60
2019-03-12T18:44:33.931Z,50.40
2019-03-12T18:46:57.625Z,50.30
2019-03-12T18:49:18.198Z,50.40
2019-03-12T18:51:38.955Z,50.70
2019-03-12T18:53:59.660Z,51.60
2019-03-12T18:56:20.228Z,52.50
2019-03-12T18:58:40.765Z,52.60
2019-03-12T19:01:02.301Z,52.10
2019-03-12T19:03:22.905Z,52.20
2019-03-12T19:05:43.496Z,52.30
2019-03-12T19:08:04.065Z,52.60
2019-03-12T19:10:24.923Z,53.10
2019-03-12T19:12:46.544Z,53.30
2019-03-12T19:15:16.679Z,54.00
2019-03-12T19:17:37.577Z,54.30
2019-03-12T19:19:59.609Z,55.10
2019-03-12T19:22:20.382Z,55.00
2019-03-12T19:24:40.947Z,54.90
2019-03-12T19:27:01.538Z,55.50
2019-03-12T19:29:22.032Z,55.70
2019-03-12T19:31:44.258Z,56.10
2019-03-12T19:34:05.636Z,56.30
2019-03-12T19:36:26.252Z,56.50
2019-03-12T19:38:46.883Z,56.80
2019-03-12T19:41:07.874Z,57.10
2019-03-12T19:43:28.492Z,57.80
2019-03-12T19:45:49.074Z,58.20
2019-03-12T19:48:09.710Z,58.00
2019-03-12T19:50:30.323Z,58.10
2019-03-12T19:52:51.373Z,58.50
2019-03-12T19:55:17.485Z,58.70
2019-03-12T19:57:38.220Z,58.80
2019-03-12T19:59:58.952Z,58.70
2019-03-12T20:02:19.794Z,58.70
2019-03-12T20:04:47.200Z,58.30
2019-03-12T20:07:02.054Z,57.50
2019-03-12T20:09:25.724Z,56.70
2019-03-12T20:12:07.009Z,56.40
2019-03-12T20:14:39.386Z,56.50
2019-03-12T20:17:24.154Z,56.70
2019-03-12T20:20:11.635Z,57.60
2019-03-12T20:22:56.188Z,58.20
2019-03-12T20:25:25.646Z,58.10
2019-03-12T20:28:09.175Z,58.00
2019-03-12T20:31:07.461Z,58.40
2019-03-12T20:33:49.496Z,58.30
2019-03-12T20:36:31.618Z,58.50
2019-03-12T20:39:29.004Z,58.80
2019-03-12T20:42:07.168Z,59.90
2019-03-12T20:44:44.910Z,59.80
2019-03-12T20:47:42.233Z,59.90
2019-03-12T20:50:11.462Z,60.50
2019-03-12T20:52:47.007Z,61.10
2019-03-12T20:55:33.280Z,61.70
2019-03-12T20:58:17.989Z,62.80
2019-03-12T21:01:04.328Z,62.10
2019-03-12T21:04:02.471Z,62.40
2019-03-12T21:06:55.405Z,62.80
2019-03-12T21:09:47.298Z,62.90
2019-03-12T21:12:37.649Z,63.10
2019-03-12T21:15:34.957Z,62.70
2019-03-12T21:18:31.641Z,62.00
2019-03-12T21:21:13.504Z,62.10
2019-03-12T21:24:06.263Z,62.30
2019-03-12T21:26:48.254Z,62.30
2019-03-12T21:29:34.604Z,61.80
2019-03-12T21:31:55.364Z,61.50
2019-03-12T21:34:16.117Z,60.90
2019-03-12T21:36:37.940Z,61.90
2019-03-12T21:39:01.852Z,62.30
2019-03-12T21:41:24.266Z,63.40
2019-03-12T21:43:45.024Z,63.60
2019-03-12T21:46:05.800Z,63.70
2019-03-12T21:48:27.541Z,64.30
2019-03-12T21:50:48.068Z,64.60
2019-03-12T21:53:11.889Z,64.50
2019-03-12T21:55:33.655Z,64.60
2019-03-12T21:57:54.308Z,63.90
2019-03-12T22:00:19.827Z,64.10
2019-03-12T22:02:40.468Z,66.00
2019-03-12T22:05:01.131Z,66.90
2019-03-12T22:07:23.049Z,66.90
2019-03-12T22:09:43.615Z,66.30
2019-03-12T22:12:04.346Z,65.50
2019-03-12T22:14:25.074Z,65.50
2019-03-12T22:16:46.993Z,66.10
2019-03-12T22:19:08.297Z,66.60
2019-03-12T22:21:39.350Z,66.80
2019-03-12T22:24:01.514Z,67.40
2019-03-12T22:26:22.077Z,68.10
2019-03-12T22:28:42.637Z,68.40
2019-03-12T22:31:03.367Z,68.80
2019-03-12T22:33:23.913Z,67.70
2019-03-12T22:35:45.525Z,67.90
2019-03-12T22:38:06.333Z,67.80
2019-03-12T22:40:27.050Z,67.70
2019-03-12T22:42:49.187Z,68.10
2019-03-12T22:45:10.498Z,68.30
2019-03-12T22:47:31.092Z,69.40
2019-03-12T22:49:51.567Z,70.00
2019-03-12T22:52:12.179Z,69.80
2019-03-12T22:54:32.847Z,69.40
2019-03-12T22:56:53.367Z,69.70
2019-03-12T22:59:14.588Z,70.80
2019-03-12T23:01:53.170Z,69.90
2019-03-12T23:04:31.880Z,69.70
2019-03-12T23:07:10.356Z,69.80
2019-03-12T23:09:32.868Z,70.20
2019-03-12T23:11:54.801Z,70.70
2019-03-12T23:14:15.613Z,70.80
2019-03-12T23:16:36.291Z,70.30
2019-03-12T23:18:57.361Z,70.40
2019-03-12T23:21:17.964Z,71.00
2019-03-12T23:23:38.519Z,71.90
2019-03-12T23:25:59.145Z,72.00
2019-03-12T23:28:19.914Z,72.10
2019-03-12T23:30:40.820Z,72.30
2019-03-12T23:33:04.730Z,72.40
2019-03-12T23:35:25.777Z,72.10
2019-03-12T23:37:46.299Z,71.90
2019-03-12T23:40:09.958Z,72.30
2019-03-12T23:42:30.634Z,72.10
2019-03-12T23:44:51.156Z,71.90
2019-03-12T23:47:11.841Z,72.60
2019-03-12T23:49:32.425Z,71.60
2019-03-12T23:51:53.130Z,71.70
2019-03-12T23:54:13.791Z,71.90
2019-03-12T23:56:34.330Z,71.60
2019-03-12T23:58:57.438Z,71.50
